createdAt,value
2018-11-23T00:02:26.089Z,0.03
2018-11-23T00:05:00.104Z,0.09
2018-11-23T00:07:33.717Z,0.03
2018-11-23T00:10:05.347Z,0.02
2018-11-23T00:12:36.724Z,-0.03
2018-11-23T00:15:12.879Z,-0.10
2018-11-23T00:17:45.464Z,-0.09
2018-11-23T00:20:18.992Z,0.02
2018-11-23T00:22:50.329Z,0.02
2018-11-23T00:25:24.268Z,-0.05
2018-11-23T00:27:57.940Z,-0.08
2018-11-23T00:30:30.518Z,-0.08
2018-11-23T00:33:03.220Z,-0.05
2018-11-23T00:35:34.522Z,-0.15
2018-11-23T00:38:07.969Z,-0.14
2018-11-23T00:40:39.231Z,-0.07
2018-11-23T00:43:11.687Z,-0.02
2018-11-23T00:45:44.509Z,-0.08
2018-11-23T00:48:17.017Z,-0.11
2018-11-23T00:50:49.878Z,-0.02
2018-11-23T00:53:21.196Z,0.00
2018-11-23T00:55:54.409Z,-0.08
2018-11-23T00:58:29.351Z,-0.10
2018-11-23T01:01:00.871Z,0.03
2018-11-23T01:03:32.183Z,0.09
2018-11-23T01:06:04.914Z,-0.01
2018-11-23T01:08:38.587Z,0.04
2018-11-23T01:11:11.554Z,-0.03
2018-11-23T01:13:46.502Z,0.02
2018-11-23T01:16:20.694Z,0.02
2018-11-23T01:18:51.947Z,-0.17
2018-11-23T01:21:25.075Z,-0.23
2018-11-23T01:23:56.559Z,-0.18
2018-11-23T01:26:35.426Z,-0.13
2018-11-23T01:29:07.606Z,-0.18
2018-11-23T01:31:40.376Z,-0.20
2018-11-23T01:34:13.219Z,-0.16
2018-11-23T01:36:44.559Z,-0.26
2018-11-23T01:39:15.864Z,-0.20
2018-11-23T01:41:48.939Z,-0.27
2018-11-23T01:44:20.200Z,-0.26
2018-11-23T01:46:51.511Z,-0.27
2018-11-23T01:49:25.103Z,-0.30
2018-11-23T01:51:57.818Z,-0.18
2018-11-23T01:54:29.051Z,-0.18
2018-11-23T01:57:02.303Z,-0.34
2018-11-23T01:59:33.535Z,-0.36
2018-11-23T02:02:07.905Z,-0.25
2018-11-23T02:04:41.109Z,-0.22
2018-11-23T02:07:12.922Z,-0.21
2018-11-23T02:09:45.985Z,-0.25
2018-11-23T02:12:19.604Z,-0.25
2018-11-23T02:14:55.220Z,-0.24
2018-11-23T02:17:26.413Z,-0.34
2018-11-23T02:19:59.132Z,-0.39
2018-11-23T02:22:33.663Z,-0.40
2018-11-23T02:25:04.941Z,-0.43
2018-11-23T02:27:39.386Z,-0.46
2018-11-23T02:30:14.312Z,-0.45
2018-11-23T02:32:47.548Z,-0.35
2018-11-23T02:35:21.336Z,-0.42
2018-11-23T02:37:55.252Z,-0.45
2018-11-23T02:40:26.885Z,-0.46
2018-11-23T02:43:00.061Z,-0.40
2018-11-23T02:45:31.399Z,-0.43
2018-11-23T02:48:05.074Z,-0.48
2018-11-23T02:50:36.729Z,-0.50
2018-11-23T02:53:09.975Z,-0.38
2018-11-23T02:55:44.129Z,-0.38
2018-11-23T02:58:16.475Z,-0.40
2018-11-23T03:00:49.285Z,-0.39
2018-11-23T03:03:22.134Z,-0.41
2018-11-23T03:05:54.637Z,-0.42
2018-11-23T03:08:28.251Z,-0.44
2018-11-23T03:11:01.947Z,-0.53
2018-11-23T03:13:34.607Z,-0.55
2018-11-23T03:16:07.456Z,-0.59
2018-11-23T03:18:40.629Z,-0.52
2018-11-23T03:21:13.964Z,-0.41
2018-11-23T03:23:46.343Z,-0.49
2018-11-23T03:26:20.012Z,-0.56
2018-11-23T03:28:51.432Z,-0.50
2018-11-23T03:31:26.269Z,-0.48
2018-11-23T03:33:59.635Z,-0.36
2018-11-23T03:36:31.026Z,-0.31
2018-11-23T03:39:03.672Z,-0.33
2018-11-23T03:41:37.404Z,-0.38
2018-11-23T03:44:09.725Z,-0.45
2018-11-23T03:46:44.056Z,-0.42
2018-11-23T03:49:17.025Z,-0.47
2018-11-23T03:51:51.076Z,-0.46
2018-11-23T03:54:23.740Z,-0.47
2018-11-23T03:56:56.479Z,-0.58
2018-11-23T03:59:29.464Z,-0.41
2018-11-23T04:02:02.500Z,-0.40
2018-11-23T04:04:33.882Z,-0.53
2018-11-23T04:07:05.151Z,-0.53
2018-11-23T04:09:39.702Z,-0.52
2018-11-23T04:12:14.349Z,-0.52
2018-11-23T04:14:45.582Z,-0.52
2018-11-23T04:17:17.014Z,-0.59
2018-11-23T04:19:49.758Z,-0.67
2018-11-23T04:22:21.243Z,-0.69
2018-11-23T04:24:54.500Z,-0.75
2018-11-23T04:27:27.740Z,-0.73
2018-11-23T04:30:03.015Z,-0.66
2018-11-23T04:32:36.718Z,-0.60
2018-11-23T04:35:12.804Z,-0.59
2018-11-23T04:37:46.093Z,-0.72
2018-11-23T04:40:18.682Z,-0.79
2018-11-23T04:42:52.419Z,-0.70
2018-11-23T04:45:24.383Z,-0.73
2018-11-23T04:47:56.889Z,-0.64
2018-11-23T04:50:28.806Z,-0.54
2018-11-23T04:53:01.327Z,-0.46
2018-11-23T04:55:32.696Z,-0.40
2018-11-23T04:58:06.034Z,-0.39
2018-11-23T05:00:40.100Z,-0.32
2018-11-23T05:03:13.131Z,-0.35
2018-11-23T05:05:46.992Z,-0.35
2018-11-23T05:08:19.751Z,-0.35
2018-11-23T05:10:53.080Z,-0.39
2018-11-23T05:13:25.749Z,-0.30
2018-11-23T05:15:58.700Z,-0.28
2018-11-23T05:18:30.070Z,-0.28
2018-11-23T05:21:01.479Z,-0.25
2018-11-23T05:23:34.929Z,-0.29
2018-11-23T05:26:08.380Z,-0.27
2018-11-23T05:28:42.757Z,-0.27
2018-11-23T05:31:15.607Z,-0.26
2018-11-23T05:33:47.085Z,-0.19
2018-11-23T05:36:20.027Z,-0.14
2018-11-23T05:38:52.987Z,-0.11
2018-11-23T05:41:24.530Z,-0.14
2018-11-23T05:43:56.374Z,-0.10
2018-11-23T05:46:29.523Z,-0.13
2018-11-23T05:49:02.614Z,-0.13
2018-11-23T05:51:35.301Z,-0.11
2018-11-23T05:54:07.627Z,-0.12
2018-11-23T05:56:39.076Z,-0.06
2018-11-23T05:59:10.539Z,-0.07
2018-11-23T06:01:43.428Z,-0.04
2018-11-23T06:04:14.802Z,-0.04
2018-11-23T06:06:46.357Z,-0.02
2018-11-23T06:09:20.574Z,0.03
2018-11-23T06:11:52.094Z,0.04
2018-11-23T06:14:25.249Z,0.07
2018-11-23T06:16:56.798Z,0.13
2018-11-23T06:19:29.659Z,0.17
2018-11-23T06:22:02.811Z,0.10
2018-11-23T06:24:36.031Z,0.09
2018-11-23T06:27:08.004Z,0.19
2018-11-23T06:29:41.637Z,0.18
2018-11-23T06:32:49.703Z,0.25
2018-11-23T06:35:23.338Z,0.30
2018-11-23T06:37:56.206Z,0.26
2018-11-23T06:40:27.888Z,0.35
2018-11-23T06:43:02.507Z,0.38
2018-11-23T06:45:37.495Z,0.43
2018-11-23T06:48:11.422Z,0.37
2018-11-23T06:50:44.792Z,0.39
2018-11-23T06:53:17.544Z,0.40
2018-11-23T06:55:50.646Z,0.44
2018-11-23T06:58:21.943Z,0.34
2018-11-23T07:00:56.298Z,0.42
2018-11-23T07:03:30.032Z,0.43
2018-11-23T07:06:03.416Z,0.45
2018-11-23T07:08:37.352Z,0.55
2018-11-23T07:11:10.990Z,0.54
2018-11-23T07:13:46.127Z,0.53
2018-11-23T07:16:17.585Z,0.50
2018-11-23T07:18:50.961Z,0.55
2018-11-23T07:21:24.165Z,0.55
2018-11-23T07:23:58.019Z,0.56
2018-11-23T07:26:29.901Z,0.63
2018-11-23T07:29:03.503Z,0.71
2018-11-23T07:31:34.896Z,0.66
2018-11-23T07:34:06.448Z,0.71
2018-11-23T07:36:40.302Z,0.73
2018-11-23T07:39:48.745Z,0.83
2018-11-23T07:42:24.735Z,0.97
2018-11-23T07:44:57.600Z,1.11
2018-11-23T07:47:31.351Z,1.32
2018-11-23T07:50:02.655Z,1.40
2018-11-23T07:52:36.739Z,1.51
2018-11-23T07:55:09.375Z,1.53
2018-11-23T07:57:41.921Z,1.63
2018-11-23T08:00:21.399Z,1.64
2018-11-23T08:02:54.559Z,1.70
2018-11-23T08:05:27.971Z,1.89
2018-11-23T08:07:59.315Z,2.16
2018-11-23T08:10:30.028Z,2.35
2018-11-23T08:13:02.786Z,2.46
2018-11-23T08:15:35.045Z,2.70
2018-11-23T08:18:08.073Z,2.98
2018-11-23T08:20:39.553Z,3.12
2018-11-23T08:23:11.005Z,3.27
2018-11-23T08:25:44.351Z,3.29
2018-11-23T08:28:17.465Z,3.05
2018-11-23T08:30:49.260Z,3.03
2018-11-23T08:33:23.259Z,2.98
2018-11-23T08:35:57.725Z,3.04
2018-11-23T08:38:29.836Z,3.23
2018-11-23T08:41:01.221Z,3.55
2018-11-23T08:43:34.131Z,3.79
2018-11-23T08:46:07.582Z,3.70
2018-11-23T08:48:40.553Z,3.72
2018-11-23T08:51:13.843Z,3.94
2018-11-23T08:53:48.044Z,4.29
2018-11-23T08:56:21.796Z,4.49
2018-11-23T08:58:53.495Z,4.91
2018-11-23T09:01:26.228Z,4.99
2018-11-23T09:03:59.713Z,5.12
2018-11-23T09:06:31.121Z,5.53
2018-11-23T09:09:04.194Z,5.67
2018-11-23T09:11:37.438Z,5.92
2018-11-23T09:14:11.523Z,6.15
2018-11-23T09:16:43.930Z,5.79
2018-11-23T09:19:18.069Z,5.84
2018-11-23T09:21:51.123Z,6.02
2018-11-23T09:24:23.092Z,5.97
2018-11-23T09:26:56.459Z,5.90
2018-11-23T09:29:28.258Z,5.80
2018-11-23T09:32:00.919Z,6.36
2018-11-23T09:34:33.638Z,6.74
2018-11-23T09:37:06.712Z,6.75
2018-11-23T09:39:37.933Z,7.34
2018-11-23T09:42:09.198Z,7.34
2018-11-23T09:44:40.394Z,7.43
2018-11-23T09:47:11.561Z,7.70
2018-11-23T09:49:42.782Z,7.54
2018-11-23T09:52:14.051Z,7.48
2018-11-23T09:54:45.382Z,8.00
2018-11-23T09:57:16.788Z,7.94
2018-11-23T09:59:48.137Z,7.57
2018-11-23T10:02:19.401Z,7.63
2018-11-23T10:04:50.689Z,7.23
2018-11-23T10:07:21.930Z,7.20
2018-11-23T10:09:53.512Z,6.91
2018-11-23T10:12:24.878Z,7.23
2018-11-23T10:14:56.141Z,7.23
2018-11-23T10:17:27.488Z,6.83
2018-11-23T10:19:58.715Z,6.89
2018-11-23T10:22:30.007Z,6.81
2018-11-23T10:25:01.326Z,6.64
2018-11-23T10:27:32.463Z,6.62
2018-11-23T10:30:03.765Z,6.51
2018-11-23T10:32:34.942Z,6.57
2018-11-23T10:35:06.531Z,6.46
2018-11-23T10:37:37.908Z,6.40
2018-11-23T10:40:15.279Z,6.81
2018-11-23T10:42:46.715Z,7.12
2018-11-23T10:45:19.918Z,6.72
2018-11-23T10:47:51.872Z,6.93
2018-11-23T10:50:27.253Z,7.12
2018-11-23T10:53:00.850Z,7.54
2018-11-23T10:55:33.454Z,7.44
2018-11-23T10:58:04.828Z,7.52
2018-11-23T11:01:09.755Z,7.53
2018-11-23T11:03:57.657Z,7.67
2018-11-23T11:06:45.930Z,7.50
2018-11-23T11:09:17.281Z,7.48
2018-11-23T11:11:48.552Z,7.49
2018-11-23T11:14:19.834Z,7.31
2018-11-23T11:16:51.171Z,7.04
2018-11-23T11:19:22.458Z,7.00
2018-11-23T11:21:53.816Z,6.81
2018-11-23T11:24:25.177Z,6.57
2018-11-23T11:26:56.628Z,6.26
2018-11-23T11:29:28.794Z,6.03
2018-11-23T11:32:00.067Z,5.78
2018-11-23T11:34:31.406Z,5.66
2018-11-23T11:37:02.895Z,5.60
2018-11-23T11:39:34.056Z,5.68
2018-11-23T11:42:05.428Z,5.32
2018-11-23T11:44:36.635Z,5.38
2018-11-23T11:47:08.263Z,5.35
2018-11-23T11:49:39.625Z,5.17
2018-11-23T11:52:10.935Z,4.82
2018-11-23T11:54:42.302Z,4.76
2018-11-23T11:57:13.628Z,4.85
2018-11-23T11:59:44.935Z,4.85
2018-11-23T12:02:16.199Z,4.76
2018-11-23T12:04:47.389Z,4.60
2018-11-23T12:07:18.646Z,4.53
2018-11-23T12:09:49.857Z,4.52
2018-11-23T12:12:21.095Z,4.47
2018-11-23T12:14:52.347Z,4.47
2018-11-23T12:17:23.913Z,4.40
2018-11-23T12:19:55.239Z,4.45
2018-11-23T12:22:26.525Z,4.24
2018-11-23T12:24:57.827Z,4.23
2018-11-23T12:27:29.503Z,4.27
2018-11-23T12:30:00.258Z,4.13
2018-11-23T12:32:31.525Z,4.20
2018-11-23T12:35:02.820Z,4.21
2018-11-23T12:37:34.108Z,4.15
2018-11-23T12:40:05.335Z,4.04
2018-11-23T12:42:36.702Z,4.12
2018-11-23T12:45:09.998Z,4.06
2018-11-23T12:47:41.242Z,4.23
2018-11-23T12:50:20.198Z,4.35
2018-11-23T12:52:51.421Z,4.26
2018-11-23T12:55:25.710Z,4.10
2018-11-23T12:57:56.976Z,3.88
2018-11-23T13:00:29.127Z,3.73
2018-11-23T13:03:04.721Z,3.67
2018-11-23T13:05:36.628Z,3.61
2018-11-23T13:08:08.418Z,3.63
2018-11-23T13:10:39.644Z,3.50
2018-11-23T13:13:12.188Z,3.37
2018-11-23T13:15:43.444Z,3.36
2018-11-23T13:18:14.882Z,3.38
2018-11-23T13:20:46.232Z,3.35
2018-11-23T13:23:20.508Z,3.36
2018-11-23T13:25:51.838Z,3.14
2018-11-23T13:28:23.020Z,3.26
2018-11-23T13:30:54.257Z,3.25
2018-11-23T13:33:25.407Z,3.39
2018-11-23T13:35:56.678Z,3.39
2018-11-23T13:38:27.862Z,3.50
2018-11-23T13:40:59.391Z,3.47
2018-11-23T13:43:31.703Z,3.43
2018-11-23T13:46:03.002Z,3.34
2018-11-23T13:48:34.289Z,3.19
2018-11-23T13:51:06.007Z,3.10
2018-11-23T13:53:37.180Z,3.09
2018-11-23T13:56:09.438Z,2.95
2018-11-23T13:58:40.737Z,2.97
2018-11-23T14:01:11.952Z,2.99
2018-11-23T14:03:43.229Z,2.77
2018-11-23T14:06:14.336Z,2.66
2018-11-23T14:08:45.551Z,2.66
2018-11-23T14:11:16.814Z,2.50
2018-11-23T14:13:48.067Z,2.35
2018-11-23T14:16:19.257Z,2.31
2018-11-23T14:18:50.619Z,2.44
2018-11-23T14:21:21.917Z,2.38
2018-11-23T14:23:53.313Z,2.32
2018-11-23T14:26:24.803Z,2.19
2018-11-23T14:28:56.097Z,2.16
2018-11-23T14:31:27.387Z,2.12
2018-11-23T14:33:58.688Z,2.15
2018-11-23T14:36:29.889Z,2.11
2018-11-23T14:39:01.114Z,1.98
2018-11-23T14:41:32.386Z,1.95
2018-11-23T14:44:06.904Z,1.94
2018-11-23T14:46:35.058Z,1.84
2018-11-23T14:49:08.448Z,1.71
2018-11-23T14:51:39.745Z,1.71
2018-11-23T14:54:11.035Z,1.63
2018-11-23T14:56:42.328Z,1.50
2018-11-23T14:59:13.536Z,1.45
2018-11-23T15:01:44.853Z,1.54
2018-11-23T15:04:16.153Z,1.54
2018-11-23T15:06:50.432Z,1.61
2018-11-23T15:09:21.812Z,1.50
2018-11-23T15:11:53.064Z,1.27
2018-11-23T15:14:24.257Z,1.21
2018-11-23T15:16:55.555Z,1.29
2018-11-23T15:19:26.827Z,1.13
2018-11-23T15:21:58.161Z,1.09
2018-11-23T15:24:29.504Z,0.94
2018-11-23T15:27:00.771Z,1.02
2018-11-23T15:29:31.973Z,0.96
2018-11-23T15:32:03.317Z,0.92
2018-11-23T15:34:34.521Z,0.90
2018-11-23T15:37:05.764Z,0.86
2018-11-23T15:39:37.032Z,0.83
2018-11-23T15:42:08.287Z,0.87
2018-11-23T15:44:39.517Z,0.76
2018-11-23T15:47:10.889Z,0.77
2018-11-23T15:49:42.061Z,0.80
2018-11-23T15:52:13.431Z,0.88
2018-11-23T15:54:44.657Z,0.81
2018-11-23T15:57:15.911Z,0.86
2018-11-23T15:59:47.123Z,0.86
2018-11-23T16:02:18.374Z,0.76
2018-11-23T16:04:49.676Z,0.65
2018-11-23T16:07:21.030Z,0.82
2018-11-23T16:09:52.221Z,0.96
2018-11-23T16:12:23.541Z,1.08
2018-11-23T16:14:54.820Z,1.03
2018-11-23T16:17:25.946Z,0.94
2018-11-23T16:19:57.264Z,0.81
2018-11-23T16:22:28.624Z,0.85
2018-11-23T16:24:59.943Z,0.75
2018-11-23T16:27:31.242Z,0.76
2018-11-23T16:30:02.555Z,0.81
2018-11-23T16:32:33.852Z,0.69
2018-11-23T16:35:05.143Z,0.66
2018-11-23T16:37:36.343Z,0.56
2018-11-23T16:40:09.291Z,0.71
2018-11-23T16:42:40.932Z,0.60
2018-11-23T16:45:15.360Z,0.46
2018-11-23T16:47:47.131Z,0.40
2018-11-23T16:50:18.475Z,0.25
2018-11-23T16:52:50.386Z,0.26
2018-11-23T16:55:22.899Z,0.37
2018-11-23T16:57:55.561Z,0.46
2018-11-23T17:00:37.283Z,0.39
2018-11-23T17:03:10.542Z,0.45
2018-11-23T17:05:46.404Z,0.44
2018-11-23T17:08:17.635Z,0.38
2018-11-23T17:10:48.942Z,0.40
2018-11-23T17:13:20.078Z,0.40
2018-11-23T17:15:51.341Z,0.39
2018-11-23T17:18:22.607Z,0.24
2018-11-23T17:20:53.883Z,0.23
2018-11-23T17:23:25.553Z,0.20
2018-11-23T17:25:56.783Z,0.21
2018-11-23T17:28:28.043Z,0.15
2018-11-23T17:30:59.308Z,0.02
2018-11-23T17:33:30.622Z,-0.08
2018-11-23T17:36:02.236Z,-0.21
2018-11-23T17:38:37.567Z,-0.19
2018-11-23T17:41:04.858Z,-0.21
2018-11-23T17:43:36.143Z,-0.33
2018-11-23T17:46:07.320Z,-0.30
2018-11-23T17:48:38.992Z,-0.38
2018-11-23T17:51:10.297Z,-0.41
2018-11-23T17:53:41.707Z,-0.42
2018-11-23T17:56:12.986Z,-0.40
2018-11-23T17:58:45.123Z,-0.41
2018-11-23T18:01:19.359Z,-0.37
2018-11-23T18:03:50.601Z,-0.39
2018-11-23T18:09:12.210Z,-0.37
2018-11-23T18:11:43.395Z,-0.36
2018-11-23T18:14:14.662Z,-0.32
2018-11-23T18:16:45.865Z,-0.34
2018-11-23T18:19:17.175Z,-0.64
2018-11-23T18:21:48.502Z,-0.61
2018-11-23T18:24:19.783Z,-0.62
2018-11-23T18:26:51.104Z,-0.60
2018-11-23T18:29:22.320Z,-0.62
2018-11-23T18:31:53.615Z,-0.54
2018-11-23T18:34:24.959Z,-0.55
2018-11-23T18:36:56.263Z,-0.66
2018-11-23T18:39:27.584Z,-0.69
2018-11-23T18:41:58.842Z,-0.68
2018-11-23T18:44:30.109Z,-0.65
2018-11-23T18:47:01.302Z,-0.78
2018-11-23T18:49:32.581Z,-0.84
2018-11-23T18:52:03.937Z,-0.77
2018-11-23T18:54:35.076Z,-0.72
2018-11-23T18:57:06.727Z,-0.68
2018-11-23T18:59:37.968Z,-0.75
2018-11-23T19:02:09.213Z,-0.77
2018-11-23T19:07:56.272Z,-1.00
2018-11-23T19:10:26.968Z,-0.90
2018-11-23T19:12:57.659Z,-0.83
2018-11-23T19:15:28.271Z,-0.77
2018-11-23T19:17:58.746Z,-0.75
2018-11-23T19:20:29.413Z,-0.79
2018-11-23T19:23:00.042Z,-0.89
2018-11-23T19:25:30.651Z,-0.91
2018-11-23T19:28:01.183Z,-0.96
2018-11-23T19:30:32.114Z,-1.09
2018-11-23T19:33:02.731Z,-1.12
2018-11-23T19:35:33.304Z,-0.94
2018-11-23T19:38:03.875Z,-0.90
2018-11-23T19:40:34.356Z,-0.86
2018-11-23T19:43:04.943Z,-0.96
2018-11-23T19:45:35.776Z,-0.96
2018-11-23T19:48:06.464Z,-1.02
2018-11-23T19:50:37.036Z,-1.18
2018-11-23T19:53:07.656Z,-1.10
2018-11-23T19:55:38.183Z,-1.06
2018-11-23T19:58:08.779Z,-0.98
2018-11-23T20:00:39.318Z,-1.07
2018-11-23T20:03:09.942Z,-1.11
2018-11-23T20:05:42.764Z,-1.17
2018-11-23T20:08:13.393Z,-1.17
2018-11-23T20:10:44.051Z,-1.16
2018-11-23T20:13:14.624Z,-1.10
2018-11-23T20:15:45.882Z,-1.15
2018-11-23T20:18:16.456Z,-1.12
2018-11-23T20:20:47.034Z,-1.07
2018-11-23T20:23:17.603Z,-1.19
2018-11-23T20:25:48.203Z,-1.09
2018-11-23T20:28:18.724Z,-1.27
2018-11-23T20:30:49.348Z,-1.23
2018-11-23T20:33:19.975Z,-1.15
2018-11-23T20:35:50.992Z,-1.15
2018-11-23T20:38:21.359Z,-1.11
2018-11-23T20:40:51.917Z,-1.16
2018-11-23T20:43:22.500Z,-1.20
2018-11-23T20:45:53.306Z,-1.22
2018-11-23T20:48:24.795Z,-1.13
2018-11-23T20:50:55.434Z,-0.97
2018-11-23T20:53:25.936Z,-0.84
2018-11-23T20:55:56.513Z,-0.75
2018-11-23T20:58:27.080Z,-0.66
2018-11-23T21:00:57.731Z,-0.66
2018-11-23T21:03:29.338Z,-0.70
2018-11-23T21:05:59.982Z,-0.75
2018-11-23T21:08:30.555Z,-0.77
2018-11-23T21:11:01.082Z,-0.77
2018-11-23T21:13:31.657Z,-0.66
2018-11-23T21:16:02.116Z,-0.63
2018-11-23T21:18:32.596Z,-0.50
2018-11-23T21:21:03.040Z,-0.52
2018-11-23T21:23:33.604Z,-0.61
2018-11-23T21:26:04.574Z,-0.75
2018-11-23T21:28:35.178Z,-0.73
2018-11-23T21:31:05.744Z,-0.82
2018-11-23T21:33:36.284Z,-0.83
2018-11-23T21:36:06.953Z,-1.07
2018-11-23T21:38:37.551Z,-0.92
2018-11-23T21:41:08.197Z,-1.06
2018-11-23T21:43:38.808Z,-1.13
2018-11-23T21:46:09.644Z,-1.02
2018-11-23T21:48:40.197Z,-0.82
2018-11-23T21:51:10.726Z,-0.85
2018-11-23T21:53:41.387Z,-0.89
2018-11-23T21:56:11.937Z,-0.73
2018-11-23T21:58:42.798Z,-0.63
2018-11-23T22:01:13.363Z,-0.63
2018-11-23T22:03:43.940Z,-0.53
2018-11-23T22:06:15.558Z,-0.40
2018-11-23T22:08:46.275Z,-0.36
2018-11-23T22:11:16.843Z,-0.36
2018-11-23T22:13:47.503Z,-0.43
2018-11-23T22:16:17.989Z,-0.43
2018-11-23T22:18:48.547Z,-0.27
2018-11-23T22:21:19.064Z,-0.29
2018-11-23T22:23:49.711Z,-0.35
2018-11-23T22:26:20.572Z,-0.27
2018-11-23T22:28:51.093Z,-0.20
2018-11-23T22:31:21.603Z,-0.12
2018-11-23T22:33:52.190Z,-0.09
2018-11-23T22:36:22.714Z,-0.06
2018-11-23T22:38:53.244Z,0.03
2018-11-23T22:41:23.712Z,0.06
2018-11-23T22:43:54.229Z,0.03
2018-11-23T22:46:25.100Z,0.02
2018-11-23T22:48:56.023Z,0.07
2018-11-23T22:51:26.587Z,0.09
2018-11-23T22:53:57.155Z,0.16
2018-11-23T22:56:27.726Z,0.20
2018-11-23T22:58:58.300Z,0.33
2018-11-23T23:01:29.006Z,0.34
2018-11-23T23:03:59.524Z,0.41
2018-11-23T23:06:30.268Z,0.38
2018-11-23T23:09:00.878Z,0.36
2018-11-23T23:11:31.468Z,0.38
2018-11-23T23:14:02.806Z,0.48
2018-11-23T23:16:33.934Z,0.46
2018-11-23T23:19:04.545Z,0.43
2018-11-23T23:21:35.187Z,0.42
2018-11-23T23:24:11.625Z,0.45
2018-11-23T23:26:36.592Z,0.47
2018-11-23T23:29:07.284Z,0.44
2018-11-23T23:31:37.878Z,0.53
2018-11-23T23:34:08.374Z,0.50
2018-11-23T23:36:38.935Z,0.47
2018-11-23T23:39:09.931Z,0.51
2018-11-23T23:41:41.080Z,0.51
2018-11-23T23:44:11.653Z,0.53
2018-11-23T23:46:44.267Z,0.54
2018-11-23T23:49:14.862Z,0.50
2018-11-23T23:51:45.439Z,0.54
2018-11-23T23:54:16.008Z,0.61
2018-11-23T23:56:46.624Z,0.64
2018-11-23T23:59:17.307Z,0.61
